Time;durP1;ratioP1;P1;durP2;ratioP2;P2;SDS_P1;SDS_P2;PMS_P1;PMS_P2;Temp;Humidity;BMP_temperature;BMP_pressure;BME280_temperature;BME280_humidity;BME280_pressure;Samples;Min_cycle;Max_cycle;Signal;HPM_P1;HPM_P2
2021/12/02 00:01:16;;;;;;;13.73;6.85;;;;;;;;;;5029084;28;20794;-37
2021/12/02 00:03:43;;;;;;;7.22;4.00;;;;;;;;;;5029369;28;20713;-37
2021/12/02 00:06:11;;;;;;;19.45;7.90;;;;;;;;;;5027887;28;20029;-37
2021/12/02 00:08:37;;;;;;;19.58;9.98;;;;;;;;;;5027934;28;20021;-39
2021/12/02 00:11:04;;;;;;;7.78;4.13;;;;;;;;;;5027342;28;20031;-38
2021/12/02 00:13:36;;;;;;;9.63;5.03;;;;;;;;;;5027222;28;20037;-38
2021/12/02 00:21:03;;;;;;;11.43;5.20;;;;;;;;;;5023954;28;20021;-39
2021/12/02 00:21:28;;;;;;;12.00;6.57;;;;;;;;;;5028223;28;20128;-38
2021/12/02 00:24:00;;;;;;;8.95;4.40;;;;;;;;;;5027582;28;20697;-37
2021/12/02 00:26:27;;;;;;;17.10;7.78;;;;;;;;;;5028981;28;20032;-39
2021/12/02 00:28:54;;;;;;;20.17;10.32;;;;;;;;;;5038846;28;20108;-38
2021/12/02 00:31:22;;;;;;;15.00;6.13;;;;;;;;;;5036746;28;20029;-38
2021/12/02 00:33:50;;;;;;;23.42;6.18;;;;;;;;;;5033253;28;20044;-37
2021/12/02 00:36:17;;;;;;;18.60;6.70;;;;;;;;;;5033187;28;20021;-37
2021/12/02 00:38:46;;;;;;;7.80;4.25;;;;;;;;;;5033170;28;20052;-37
2021/12/02 00:41:13;;;;;;;14.60;6.03;;;;;;;;;;5032138;28;20167;-38
2021/12/02 00:43:39;;;;;;;17.77;7.68;;;;;;;;;;5030907;28;20048;-38
2021/12/02 00:46:10;;;;;;;13.80;4.57;;;;;;;;;;5030791;28;20029;-39
2021/12/02 00:48:37;;;;;;;42.58;20.10;;;;;;;;;;5030183;28;20224;-38
2021/12/02 00:51:03;;;;;;;15.32;8.52;;;;;;;;;;5030524;28;20143;-37
2021/12/02 00:53:31;;;;;;;13.50;5.63;;;;;;;;;;5029524;28;20029;-37
2021/12/02 00:55:57;;;;;;;16.90;8.38;;;;;;;;;;5030365;28;20022;-37
2021/12/02 00:58:24;;;;;;;7.05;3.15;;;;;;;;;;5030311;28;20100;-37
2021/12/02 01:00:52;;;;;;;4.72;2.72;;;;;;;;;;5030575;28;20033;-37
2021/12/02 01:03:19;;;;;;;9.18;3.97;;;;;;;;;;5030368;28;20052;-37
2021/12/02 01:05:47;;;;;;;12.27;6.43;;;;;;;;;;5027534;28;20029;-40
2021/12/02 01:08:14;;;;;;;7.60;3.45;;;;;;;;;;5032670;28;20029;-41
2021/12/02 01:10:41;;;;;;;3.90;2.40;;;;;;;;;;5033329;28;20017;-37
2021/12/02 01:13:07;;;;;;;16.92;8.07;;;;;;;;;;5033017;28;20135;-38
2021/12/02 01:15:33;;;;;;;8.23;3.28;;;;;;;;;;5033087;28;20401;-38
2021/12/02 01:17:59;;;;;;;4.13;2.22;;;;;;;;;;5033234;28;20025;-38
2021/12/02 01:20:28;;;;;;;12.50;4.63;;;;;;;;;;5033344;28;20017;-38
2021/12/02 01:22:54;;;;;;;11.60;6.57;;;;;;;;;;5033172;28;20036;-38
2021/12/02 01:25:21;;;;;;;12.60;5.82;;;;;;;;;;5033172;28;20022;-38
2021/12/02 01:27:48;;;;;;;12.05;5.53;;;;;;;;;;5033175;28;20147;-39
2021/12/02 01:30:15;;;;;;;14.15;7.53;;;;;;;;;;5032983;28;20025;-38
2021/12/02 01:32:41;;;;;;;6.22;3.28;;;;;;;;;;5033273;28;20037;-38
2021/12/02 01:35:07;;;;;;;4.45;2.83;;;;;;;;;;5033181;28;20025;-39
2021/12/02 01:37:34;;;;;;;11.10;4.97;;;;;;;;;;5033169;28;20026;-39
2021/12/02 01:40:00;;;;;;;6.35;2.92;;;;;;;;;;5032963;28;20032;-38
2021/12/02 01:42:28;;;;;;;7.15;3.95;;;;;;;;;;5032941;28;20536;-38
2021/12/02 01:44:57;;;;;;;13.35;6.50;;;;;;;;;;5032834;28;20042;-38
2021/12/02 01:47:29;;;;;;;5.82;3.20;;;;;;;;;;5032993;28;20037;-39
2021/12/02 01:50:03;;;;;;;8.23;4.82;;;;;;;;;;5031881;28;20029;-38
2021/12/02 01:52:30;;;;;;;2.38;1.77;;;;;;;;;;5033120;28;20076;-39
2021/12/02 01:55:04;;;;;;;7.68;3.20;;;;;;;;;;5032935;28;20104;-39
2021/12/02 01:57:31;;;;;;;2.55;1.55;;;;;;;;;;5032861;28;20025;-39
2021/12/02 02:00:20;;;;;;;4.78;2.20;;;;;;;;;;5033070;28;20418;-40
2021/12/02 02:02:50;;;;;;;5.45;2.80;;;;;;;;;;5032992;28;20549;-44
2021/12/02 02:05:17;;;;;;;3.08;1.80;;;;;;;;;;5032902;28;20049;-40
2021/12/02 02:07:53;;;;;;;3.72;1.58;;;;;;;;;;5032784;28;20022;-39
2021/12/02 02:10:20;;;;;;;5.75;2.15;;;;;;;;;;5036634;28;20434;-41
2021/12/02 02:12:46;;;;;;;2.05;1.60;;;;;;;;;;5036545;28;20029;-46
2021/12/02 02:15:13;;;;;;;5.25;2.78;;;;;;;;;;5036262;28;20069;-39
2021/12/02 02:17:46;;;;;;;3.20;1.58;;;;;;;;;;5036800;28;20040;-39
2021/12/02 02:20:14;;;;;;;2.70;1.90;;;;;;;;;;5036307;28;20025;-39
2021/12/02 02:22:42;;;;;;;2.75;1.40;;;;;;;;;;5036332;28;20030;-39
2021/12/02 02:25:13;;;;;;;6.18;1.30;;;;;;;;;;5036420;28;20021;-39
2021/12/02 02:27:39;;;;;;;12.18;6.18;;;;;;;;;;5036317;28;20053;-39
2021/12/02 02:30:08;;;;;;;4.47;2.97;;;;;;;;;;5036253;28;20025;-38
2021/12/02 02:32:34;;;;;;;3.38;1.95;;;;;;;;;;5036196;28;20022;-39
2021/12/02 02:35:00;;;;;;;6.78;3.63;;;;;;;;;;5036075;28;20060;-39
2021/12/02 02:37:32;;;;;;;3.17;1.80;;;;;;;;;;5036163;28;20486;-38
2021/12/02 02:39:58;;;;;;;2.60;1.15;;;;;;;;;;5036179;28;20393;-39
2021/12/02 02:42:25;;;;;;;2.15;1.42;;;;;;;;;;5035993;28;20102;-38
2021/12/02 02:44:51;;;;;;;2.88;1.42;;;;;;;;;;5035867;28;20036;-42
2021/12/02 02:47:18;;;;;;;2.67;1.40;;;;;;;;;;5035960;28;20386;-39
2021/12/02 02:49:48;;;;;;;4.38;2.20;;;;;;;;;;5035852;28;20022;-38
2021/12/02 02:52:14;;;;;;;4.40;2.13;;;;;;;;;;5035980;28;20449;-39
2021/12/02 02:54:40;;;;;;;3.15;1.75;;;;;;;;;;5035835;28;20025;-39
2021/12/02 02:57:09;;;;;;;6.57;3.25;;;;;;;;;;5035717;28;20033;-39
2021/12/02 02:59:44;;;;;;;3.72;2.05;;;;;;;;;;5035751;28;20465;-41
2021/12/02 03:07:45;;;;;;;11.52;5.43;;;;;;;;;;5013695;28;20038;-39
2021/12/02 03:12:57;;;;;;;5.55;2.85;;;;;;;;;;5013511;28;20032;-39
2021/12/02 03:17:50;;;;;;;7.07;3.80;;;;;;;;;;5013450;28;20030;-38
2021/12/02 03:20:16;;;;;;;5.22;3.03;;;;;;;;;;5012939;28;20030;-39
2021/12/02 03:22:43;;;;;;;9.00;3.63;;;;;;;;;;5013513;28;20037;-39
2021/12/02 03:25:10;;;;;;;7.32;2.90;;;;;;;;;;5013238;28;20429;-39
2021/12/02 03:27:38;;;;;;;5.25;2.90;;;;;;;;;;5013338;28;20077;-38
2021/12/02 03:30:08;;;;;;;2.85;1.77;;;;;;;;;;5013076;28;20030;-38
2021/12/02 03:32:36;;;;;;;2.88;1.77;;;;;;;;;;5013256;28;20026;-38
2021/12/02 03:35:05;;;;;;;6.57;3.72;;;;;;;;;;5013385;28;20096;-38
2021/12/02 03:37:31;;;;;;;4.55;2.20;;;;;;;;;;5013099;28;20053;-38
2021/12/02 03:39:57;;;;;;;7.05;3.30;;;;;;;;;;5016433;28;20038;-38
2021/12/02 03:42:23;;;;;;;5.93;3.22;;;;;;;;;;5034521;28;20041;-38
2021/12/02 03:44:49;;;;;;;3.70;2.13;;;;;;;;;;5034611;28;20030;-38
2021/12/02 03:47:15;;;;;;;3.53;2.05;;;;;;;;;;5034876;28;20109;-38
2021/12/02 03:49:41;;;;;;;4.03;2.10;;;;;;;;;;5034825;28;20105;-38
2021/12/02 03:52:08;;;;;;;6.53;2.58;;;;;;;;;;5034787;28;20482;-39
2021/12/02 03:54:34;;;;;;;9.98;3.70;;;;;;;;;;5034699;28;20025;-38
2021/12/02 03:57:03;;;;;;;3.90;2.15;;;;;;;;;;5034581;28;20026;-39
2021/12/02 03:59:29;;;;;;;5.72;2.80;;;;;;;;;;5034674;28;20026;-39
2021/12/02 04:01:55;;;;;;;3.63;1.95;;;;;;;;;;5034269;28;20030;-39
2021/12/02 04:04:21;;;;;;;4.70;2.63;;;;;;;;;;5034468;28;20492;-41
2021/12/02 04:06:47;;;;;;;6.30;3.03;;;;;;;;;;5034510;28;20029;-39
2021/12/02 04:09:21;;;;;;;7.10;3.72;;;;;;;;;;5034450;28;20059;-39
2021/12/02 04:14:30;;;;;;;5.47;2.60;;;;;;;;;;5033985;28;20044;-40
2021/12/02 04:17:01;;;;;;;8.15;4.45;;;;;;;;;;5034053;28;20037;-40
2021/12/02 04:19:27;;;;;;;5.40;3.33;;;;;;;;;;5034271;28;20045;-39
2021/12/02 04:21:54;;;;;;;6.47;3.90;;;;;;;;;;5034018;28;20378;-38
2021/12/02 04:24:21;;;;;;;8.35;4.65;;;;;;;;;;5033942;28;20466;-41
2021/12/02 04:26:47;;;;;;;10.27;4.85;;;;;;;;;;5034061;28;20034;-42
2021/12/02 04:29:13;;;;;;;8.63;4.00;;;;;;;;;;5034087;28;20031;-42
2021/12/02 04:31:46;;;;;;;8.80;4.28;;;;;;;;;;5033351;28;20470;-40
2021/12/02 04:34:13;;;;;;;7.15;3.13;;;;;;;;;;5033963;28;20112;-38
2021/12/02 04:36:39;;;;;;;8.68;3.47;;;;;;;;;;5033987;28;20029;-38
2021/12/02 04:39:06;;;;;;;6.53;3.30;;;;;;;;;;5033797;28;20037;-38
2021/12/02 04:41:32;;;;;;;5.80;2.90;;;;;;;;;;5033703;28;20033;-39
2021/12/02 04:43:58;;;;;;;8.38;4.00;;;;;;;;;;5033812;28;20037;-38
2021/12/02 04:46:24;;;;;;;8.38;3.92;;;;;;;;;;5033832;28;20091;-41
2021/12/02 04:48:50;;;;;;;9.52;3.78;;;;;;;;;;5033659;28;20056;-38
2021/12/02 04:51:16;;;;;;;9.65;4.07;;;;;;;;;;5033594;28;20022;-38
2021/12/02 04:53:42;;;;;;;13.88;6.32;;;;;;;;;;5033674;28;20076;-38
2021/12/02 04:56:08;;;;;;;13.95;6.03;;;;;;;;;;5033675;28;20029;-40
2021/12/02 04:58:35;;;;;;;15.43;5.18;;;;;;;;;;5033645;28;20028;-39
2021/12/02 05:01:01;;;;;;;14.32;5.10;;;;;;;;;;5033515;28;20037;-39
2021/12/02 05:03:27;;;;;;;16.35;4.90;;;;;;;;;;5033690;28;20108;-38
2021/12/02 05:05:53;;;;;;;18.42;6.43;;;;;;;;;;5033801;28;20044;-38
2021/12/02 05:08:24;;;;;;;13.43;4.70;;;;;;;;;;5033351;28;20543;-38
2021/12/02 05:10:50;;;;;;;6.40;3.47;;;;;;;;;;5033337;28;20021;-38
2021/12/02 05:13:16;;;;;;;9.77;4.00;;;;;;;;;;5033250;28;20021;-40
2021/12/02 05:15:42;;;;;;;8.68;3.42;;;;;;;;;;5033090;28;20099;-39
2021/12/02 05:18:08;;;;;;;5.68;3.25;;;;;;;;;;5033258;28;20521;-38
2021/12/02 05:20:35;;;;;;;7.95;4.10;;;;;;;;;;5033138;28;20072;-38
2021/12/02 05:23:01;;;;;;;15.35;4.70;;;;;;;;;;5033320;28;20389;-38
2021/12/02 05:25:27;;;;;;;24.70;10.07;;;;;;;;;;5033169;28;20044;-38
2021/12/02 05:27:53;;;;;;;8.55;4.30;;;;;;;;;;5033189;28;20026;-38
2021/12/02 05:30:19;;;;;;;11.20;5.15;;;;;;;;;;5033101;28;20025;-41
2021/12/02 05:32:45;;;;;;;19.85;7.90;;;;;;;;;;5033094;28;20021;-39
2021/12/02 05:35:11;;;;;;;15.93;7.35;;;;;;;;;;5033090;28;20163;-40
2021/12/02 05:37:37;;;;;;;12.32;5.65;;;;;;;;;;5032995;28;20018;-40
2021/12/02 05:40:04;;;;;;;8.77;5.30;;;;;;;;;;5033031;28;20030;-40
2021/12/02 05:42:30;;;;;;;6.70;4.10;;;;;;;;;;5033603;28;20034;-40
2021/12/02 05:44:56;;;;;;;14.35;4.70;;;;;;;;;;5036887;28;20482;-40
2021/12/02 05:47:22;;;;;;;5.88;3.72;;;;;;;;;;5036885;28;20117;-40
2021/12/02 05:49:48;;;;;;;7.60;4.32;;;;;;;;;;5037004;28;20017;-41
2021/12/02 05:52:14;;;;;;;10.60;4.55;;;;;;;;;;5037079;28;20025;-39
2021/12/02 05:54:41;;;;;;;14.68;4.88;;;;;;;;;;5036941;28;20419;-39
2021/12/02 05:57:07;;;;;;;11.88;4.90;;;;;;;;;;5036774;28;20105;-39
2021/12/02 05:59:33;;;;;;;12.88;5.40;;;;;;;;;;5037035;28;20035;-39
2021/12/02 06:01:59;;;;;;;9.35;5.50;;;;;;;;;;5036583;28;20047;-39
2021/12/02 06:04:26;;;;;;;14.57;7.68;;;;;;;;;;5036807;28;20021;-39
2021/12/02 06:06:54;;;;;;;21.17;9.50;;;;;;;;;;5036601;28;20025;-38
2021/12/02 06:09:21;;;;;;;20.88;8.73;;;;;;;;;;5036495;28;20087;-38
2021/12/02 06:11:47;;;;;;;19.98;9.63;;;;;;;;;;5037026;28;20436;-38
2021/12/02 06:14:14;;;;;;;18.63;8.05;;;;;;;;;;5036421;28;20468;-39
2021/12/02 06:16:41;;;;;;;11.75;6.53;;;;;;;;;;5036325;28;20057;-40
2021/12/02 06:19:07;;;;;;;11.95;5.75;;;;;;;;;;5036370;28;20063;-39
2021/12/02 06:21:33;;;;;;;9.30;5.13;;;;;;;;;;5036346;28;20039;-39
2021/12/02 06:24:01;;;;;;;11.88;6.38;;;;;;;;;;5036284;28;20524;-39
2021/12/02 06:26:27;;;;;;;11.77;5.97;;;;;;;;;;5036475;28;20029;-39
2021/12/02 06:28:54;;;;;;;11.85;5.93;;;;;;;;;;5036288;28;20028;-37
2021/12/02 06:31:20;;;;;;;18.08;7.28;;;;;;;;;;5036201;28;20397;-39
2021/12/02 06:33:46;;;;;;;21.98;10.32;;;;;;;;;;5036304;28;20017;-40
2021/12/02 06:36:12;;;;;;;19.60;9.38;;;;;;;;;;5036037;28;20025;-39
2021/12/02 06:38:40;;;;;;;18.35;8.10;;;;;;;;;;5036072;28;20465;-38
2021/12/02 06:41:06;;;;;;;31.02;16.85;;;;;;;;;;5035934;28;20108;-39
2021/12/02 06:43:32;;;;;;;38.17;19.25;;;;;;;;;;5036119;28;20394;-39
2021/12/02 06:45:58;;;;;;;42.80;19.45;;;;;;;;;;5036065;28;20053;-40
2021/12/02 06:48:24;;;;;;;24.10;11.82;;;;;;;;;;5036001;28;20036;-44
2021/12/02 06:50:50;;;;;;;21.90;8.85;;;;;;;;;;5035948;28;20021;-40
2021/12/02 06:53:17;;;;;;;29.95;10.02;;;;;;;;;;5035724;28;20079;-43
2021/12/02 06:55:43;;;;;;;29.95;13.90;;;;;;;;;;5034919;28;20025;-39
2021/12/02 06:58:10;;;;;;;25.52;11.40;;;;;;;;;;5035689;28;20466;-40
2021/12/02 07:00:36;;;;;;;22.23;10.35;;;;;;;;;;5035547;28;20108;-39
2021/12/02 07:03:02;;;;;;;21.55;9.27;;;;;;;;;;5035577;28;20095;-39
2021/12/02 07:05:30;;;;;;;24.10;10.05;;;;;;;;;;5035564;28;20477;-40
2021/12/02 07:07:56;;;;;;;18.75;8.43;;;;;;;;;;5035512;28;20545;-39
2021/12/02 07:10:25;;;;;;;13.68;7.35;;;;;;;;;;5035417;28;20047;-40
2021/12/02 07:12:54;;;;;;;15.55;8.43;;;;;;;;;;5035366;28;20017;-40
2021/12/02 07:15:25;;;;;;;20.00;8.80;;;;;;;;;;5035029;28;20056;-40
2021/12/02 07:17:59;;;;;;;15.83;6.80;;;;;;;;;;5035375;28;20075;-40
2021/12/02 07:20:26;;;;;;;11.35;4.88;;;;;;;;;;5035291;28;20033;-42
2021/12/02 07:22:52;;;;;;;22.30;9.23;;;;;;;;;;5035041;28;20119;-40
2021/12/02 07:25:18;;;;;;;12.40;5.75;;;;;;;;;;5035169;28;20017;-40
2021/12/02 07:27:44;;;;;;;15.05;6.93;;;;;;;;;;5035354;28;20034;-40
2021/12/02 07:30:10;;;;;;;11.57;6.53;;;;;;;;;;5035348;28;20025;-43
2021/12/02 07:32:39;;;;;;;11.73;6.32;;;;;;;;;;5033565;28;20076;-41
2021/12/02 07:35:09;;;;;;;16.10;7.57;;;;;;;;;;5035365;28;20108;-40
2021/12/02 07:37:35;;;;;;;11.10;6.47;;;;;;;;;;5034917;28;20064;-40
2021/12/02 07:40:04;;;;;;;13.40;6.93;;;;;;;;;;5035116;28;20028;-39
2021/12/02 07:42:30;;;;;;;12.13;6.45;;;;;;;;;;5034922;28;20029;-40
2021/12/02 07:44:56;;;;;;;14.27;7.05;;;;;;;;;;5035056;28;20025;-40
2021/12/02 07:47:24;;;;;;;10.07;6.40;;;;;;;;;;5034658;28;20045;-41
2021/12/02 07:49:50;;;;;;;20.52;9.68;;;;;;;;;;5035037;28;20021;-41
2021/12/02 07:52:18;;;;;;;13.70;6.72;;;;;;;;;;5034725;28;20029;-40
2021/12/02 07:54:45;;;;;;;13.95;7.45;;;;;;;;;;5034646;28;20021;-40
2021/12/02 07:57:14;;;;;;;19.92;8.90;;;;;;;;;;5034621;28;20021;-40
2021/12/02 07:59:41;;;;;;;23.67;13.50;;;;;;;;;;5034586;28;20474;-41
2021/12/02 08:02:11;;;;;;;18.98;10.05;;;;;;;;;;5034347;28;20485;-40
2021/12/02 08:04:37;;;;;;;19.00;8.50;;;;;;;;;;5034403;28;20045;-40
2021/12/02 08:07:04;;;;;;;14.25;7.30;;;;;;;;;;5033414;28;20567;-42
2021/12/02 08:09:30;;;;;;;11.98;7.28;;;;;;;;;;5034265;28;20083;-40
2021/12/02 08:11:59;;;;;;;13.85;7.47;;;;;;;;;;5034463;28;20033;-40
2021/12/02 08:14:25;;;;;;;22.52;8.57;;;;;;;;;;5034098;28;20367;-40
2021/12/02 08:16:51;;;;;;;23.55;8.20;;;;;;;;;;5034159;28;20155;-40
2021/12/02 08:19:18;;;;;;;17.45;8.52;;;;;;;;;;5034112;28;20026;-40
2021/12/02 08:21:44;;;;;;;15.07;7.60;;;;;;;;;;5033987;28;20044;-40
2021/12/02 08:24:10;;;;;;;13.00;6.88;;;;;;;;;;5034209;28;20025;-40
2021/12/02 08:26:36;;;;;;;17.75;7.97;;;;;;;;;;5034192;28;20525;-40
2021/12/02 08:29:04;;;;;;;14.52;6.20;;;;;;;;;;5034009;28;20022;-40
2021/12/02 08:31:30;;;;;;;16.95;6.85;;;;;;;;;;5034034;28;20087;-41
2021/12/02 08:33:56;;;;;;;15.43;7.70;;;;;;;;;;5033949;28;20062;-42
2021/12/02 08:36:26;;;;;;;14.50;8.18;;;;;;;;;;5033812;28;20025;-38
2021/12/02 08:38:56;;;;;;;16.65;7.60;;;;;;;;;;5033906;28;20021;-40
2021/12/02 08:41:22;;;;;;;24.95;11.50;;;;;;;;;;5033875;28;20065;-39
2021/12/02 08:43:48;;;;;;;22.55;10.35;;;;;;;;;;5033714;28;20040;-42
2021/12/02 08:46:15;;;;;;;18.30;8.70;;;;;;;;;;5033895;28;20072;-39
2021/12/02 08:48:41;;;;;;;18.13;8.30;;;;;;;;;;5033817;28;20144;-41
2021/12/02 08:51:08;;;;;;;19.73;8.93;;;;;;;;;;5033753;28;20025;-40
2021/12/02 08:53:34;;;;;;;18.55;7.97;;;;;;;;;;5032324;28;20045;-41
2021/12/02 08:56:02;;;;;;;22.33;16.52;;;;;;;;;;5015947;28;20413;-42
2021/12/02 08:58:28;;;;;;;19.55;17.17;;;;;;;;;;5033508;28;20108;-41
2021/12/02 09:00:54;;;;;;;18.33;11.23;;;;;;;;;;5033619;28;20059;-40
2021/12/02 09:03:20;;;;;;;13.43;10.38;;;;;;;;;;5033512;28;20482;-39
2021/12/02 09:05:51;;;;;;;26.70;14.82;;;;;;;;;;5033415;28;20017;-39
2021/12/02 09:08:19;;;;;;;16.05;9.98;;;;;;;;;;5033497;28;20029;-39
2021/12/02 09:10:45;;;;;;;22.65;14.25;;;;;;;;;;5033480;28;20029;-40
2021/12/02 09:13:12;;;;;;;17.63;8.02;;;;;;;;;;5033411;28;20120;-40
2021/12/02 09:15:39;;;;;;;20.45;18.20;;;;;;;;;;5033166;28;20049;-40
2021/12/02 09:18:05;;;;;;;55.95;50.72;;;;;;;;;;5031529;28;20516;-37
2021/12/02 09:20:31;;;;;;;55.38;50.83;;;;;;;;;;5033160;28;20025;-39
2021/12/02 09:22:57;;;;;;;20.38;18.40;;;;;;;;;;5033031;28;20453;-41
2021/12/02 09:25:24;;;;;;;65.18;60.55;;;;;;;;;;5033113;28;20474;-41
2021/12/02 09:27:50;;;;;;;6.40;3.63;;;;;;;;;;5031885;28;20445;-41
2021/12/02 09:30:16;;;;;;;7.53;5.65;;;;;;;;;;5033140;28;20108;-40
2021/12/02 09:32:43;;;;;;;14.18;12.82;;;;;;;;;;5033142;28;20097;-40
2021/12/02 09:35:10;;;;;;;7.60;4.60;;;;;;;;;;5033071;28;20025;-44
2021/12/02 09:37:36;;;;;;;11.57;6.38;;;;;;;;;;5033343;28;20493;-41
2021/12/02 09:40:06;;;;;;;9.75;7.32;;;;;;;;;;5033181;28;20034;-41
2021/12/02 09:42:32;;;;;;;8.45;4.90;;;;;;;;;;5033203;28;20064;-40
2021/12/02 09:45:01;;;;;;;13.25;8.70;;;;;;;;;;5033072;28;20037;-40
2021/12/02 09:47:33;;;;;;;9.00;4.78;;;;;;;;;;5033069;28;20026;-40
2021/12/02 09:50:06;;;;;;;11.63;7.05;;;;;;;;;;5033185;28;20121;-41
2021/12/02 09:52:36;;;;;;;7.47;4.90;;;;;;;;;;5033062;28;20033;-43
2021/12/02 09:55:17;;;;;;;6.40;3.50;;;;;;;;;;5033137;28;20026;-41
2021/12/02 09:57:47;;;;;;;8.10;2.70;;;;;;;;;;5031719;28;20076;-40
2021/12/02 10:00:19;;;;;;;12.32;4.07;;;;;;;;;;5032943;28;20045;-40
2021/12/02 10:02:53;;;;;;;7.13;3.97;;;;;;;;;;5032856;28;20049;-40
2021/12/02 10:05:33;;;;;;;10.80;4.85;;;;;;;;;;5032885;28;20022;-40
2021/12/02 10:08:05;;;;;;;9.10;4.43;;;;;;;;;;5032757;28;20056;-40
2021/12/02 10:10:40;;;;;;;21.52;8.73;;;;;;;;;;5032727;28;20026;-40
2021/12/02 10:13:43;;;;;;;21.65;9.25;;;;;;;;;;5032896;28;20029;-41
2021/12/02 10:16:15;;;;;;;17.52;7.95;;;;;;;;;;5012287;28;20058;-40
2021/12/02 10:19:02;;;;;;;13.05;6.10;;;;;;;;;;5012885;28;20014;-43
2021/12/02 10:21:35;;;;;;;17.85;8.82;;;;;;;;;;5015351;28;20036;-40
2021/12/02 10:24:03;;;;;;;33.88;15.93;;;;;;;;;;5032532;28;20478;-42
2021/12/02 10:26:33;;;;;;;28.30;12.90;;;;;;;;;;5032773;28;20049;-42
2021/12/02 10:29:06;;;;;;;35.72;19.30;;;;;;;;;;5032640;28;20048;-41
2021/12/02 10:31:32;;;;;;;17.25;7.75;;;;;;;;;;5036223;28;20022;-40
2021/12/02 10:34:04;;;;;;;21.73;10.50;;;;;;;;;;5036064;28;20029;-39
2021/12/02 10:36:33;;;;;;;18.58;9.65;;;;;;;;;;5034861;28;20026;-39
2021/12/02 10:39:11;;;;;;;22.73;10.10;;;;;;;;;;5036079;28;20075;-40
2021/12/02 10:41:41;;;;;;;35.58;17.25;;;;;;;;;;5035979;28;20072;-41
2021/12/02 10:44:17;;;;;;;31.17;14.15;;;;;;;;;;5035891;28;20477;-39
2021/12/02 10:46:56;;;;;;;36.92;17.33;;;;;;;;;;5035825;28;20037;-39
2021/12/02 10:49:23;;;;;;;52.08;21.83;;;;;;;;;;5035932;28;20026;-40
2021/12/02 10:51:50;;;;;;;41.05;16.80;;;;;;;;;;5035756;28;20068;-39
2021/12/02 10:54:27;;;;;;;30.65;12.23;;;;;;;;;;5036039;28;20041;-38
2021/12/02 10:57:01;;;;;;;56.80;23.17;;;;;;;;;;5035840;28;20030;-39
2021/12/02 10:59:30;;;;;;;27.02;9.73;;;;;;;;;;5035840;28;20025;-38
2021/12/02 11:02:22;;;;;;;36.53;16.23;;;;;;;;;;5035367;28;20045;-38
2021/12/02 11:04:54;;;;;;;31.65;15.02;;;;;;;;;;5032913;28;20521;-40
2021/12/02 11:07:23;;;;;;;30.45;13.50;;;;;;;;;;5035530;28;20022;-39
2021/12/02 11:09:50;;;;;;;32.95;15.35;;;;;;;;;;5035386;28;20056;-39
2021/12/02 11:12:21;;;;;;;44.28;18.73;;;;;;;;;;5035673;28;20501;-39
2021/12/02 11:14:58;;;;;;;27.30;13.97;;;;;;;;;;5034956;28;20087;-38
2021/12/02 11:17:29;;;;;;;27.90;12.90;;;;;;;;;;5035256;28;20036;-39
2021/12/02 11:19:55;;;;;;;37.33;19.08;;;;;;;;;;5035329;28;20026;-39
2021/12/02 11:22:22;;;;;;;38.17;16.58;;;;;;;;;;5035159;28;20405;-41
2021/12/02 11:24:49;;;;;;;23.65;11.48;;;;;;;;;;5035300;28;20044;-38
2021/12/02 11:27:20;;;;;;;17.33;9.90;;;;;;;;;;5035181;28;20109;-40
2021/12/02 11:30:13;;;;;;;23.48;11.52;;;;;;;;;;5035126;28;20100;-39
2021/12/02 11:32:39;;;;;;;20.95;10.77;;;;;;;;;;5032259;28;20033;-40
2021/12/02 11:35:05;;;;;;;29.38;14.23;;;;;;;;;;5034864;28;20017;-39
2021/12/02 11:37:32;;;;;;;29.40;12.82;;;;;;;;;;5034821;28;20421;-41
2021/12/02 11:40:01;;;;;;;21.75;10.00;;;;;;;;;;5034917;28;20108;-38
2021/12/02 11:42:28;;;;;;;15.55;7.57;;;;;;;;;;5034821;28;20041;-42
2021/12/02 11:44:54;;;;;;;13.40;6.18;;;;;;;;;;5034524;28;20439;-39
2021/12/02 11:47:20;;;;;;;14.13;8.18;;;;;;;;;;5034690;28;20033;-37
2021/12/02 11:49:47;;;;;;;14.80;7.88;;;;;;;;;;5034653;28;20025;-41
2021/12/02 11:52:13;;;;;;;20.35;9.63;;;;;;;;;;5034802;28;20187;-40
2021/12/02 11:54:41;;;;;;;23.80;10.35;;;;;;;;;;5034681;28;20593;-43
2021/12/02 11:57:08;;;;;;;22.90;10.20;;;;;;;;;;5034596;28;20060;-42
2021/12/02 11:59:34;;;;;;;29.85;10.30;;;;;;;;;;5034576;28;20018;-40
2021/12/02 12:02:00;;;;;;;37.70;15.75;;;;;;;;;;5034177;28;20548;-38
2021/12/02 12:04:26;;;;;;;21.20;11.10;;;;;;;;;;5034388;28;20036;-42
2021/12/02 12:07:12;;;;;;;31.17;15.23;;;;;;;;;;5034338;28;20033;-41
2021/12/02 12:09:38;;;;;;;24.77;14.43;;;;;;;;;;5034220;28;20018;-40
2021/12/02 12:12:05;;;;;;;22.80;12.63;;;;;;;;;;5034316;28;20033;-40
2021/12/02 12:14:38;;;;;;;34.25;16.85;;;;;;;;;;5033933;28;20064;-40
2021/12/02 12:17:17;;;;;;;17.13;8.77;;;;;;;;;;5033953;28;20033;-39
2021/12/02 12:19:47;;;;;;;13.75;7.60;;;;;;;;;;5034175;28;20108;-41
2021/12/02 12:22:24;;;;;;;11.85;4.68;;;;;;;;;;5034114;28;20125;-41
2021/12/02 12:24:51;;;;;;;14.95;6.05;;;;;;;;;;5034239;28;20032;-40
2021/12/02 12:27:18;;;;;;;31.95;11.00;;;;;;;;;;5034097;28;20504;-42
2021/12/02 12:29:45;;;;;;;21.25;10.32;;;;;;;;;;5033995;28;20033;-40
2021/12/02 12:32:35;;;;;;;17.67;8.70;;;;;;;;;;5033827;28;20045;-40
2021/12/02 12:35:06;;;;;;;25.35;9.93;;;;;;;;;;5033982;28;20037;-39
2021/12/02 12:40:12;;;;;;;33.55;12.15;;;;;;;;;;5033849;28;20052;-42
2021/12/02 12:42:39;;;;;;;25.58;9.93;;;;;;;;;;5033828;28;20393;-40
2021/12/02 12:45:07;;;;;;;20.58;8.50;;;;;;;;;;5032678;28;20038;-40
2021/12/02 12:47:51;;;;;;;11.90;4.60;;;;;;;;;;5033666;28;20034;-40
2021/12/02 12:50:21;;;;;;;13.48;5.57;;;;;;;;;;5033837;28;20049;-40
2021/12/02 12:52:47;;;;;;;32.30;15.57;;;;;;;;;;5033191;28;20087;-39
2021/12/02 12:55:16;;;;;;;33.63;16.13;;;;;;;;;;5034037;28;20351;-41
2021/12/02 12:58:11;;;;;;;23.45;12.40;;;;;;;;;;5032270;28;20057;-41
2021/12/02 13:00:48;;;;;;;20.67;9.90;;;;;;;;;;4972926;28;20499;-41
2021/12/02 13:03:25;;;;;;;21.67;11.25;;;;;;;;;;4972622;28;20046;-41
2021/12/02 13:05:55;;;;;;;26.65;11.68;;;;;;;;;;4972638;28;20035;-40
2021/12/02 13:08:37;;;;;;;24.48;10.80;;;;;;;;;;4972731;28;20030;-40
2021/12/02 13:11:24;;;;;;;30.48;13.27;;;;;;;;;;4972923;28;20093;-42
2021/12/02 13:13:51;;;;;;;31.73;15.80;;;;;;;;;;4972653;28;20030;-40
2021/12/02 13:16:19;;;;;;;31.80;14.82;;;;;;;;;;4972508;28;20086;-40
2021/12/02 13:18:45;;;;;;;23.52;12.55;;;;;;;;;;4972588;28;20098;-43
2021/12/02 13:21:30;;;;;;;32.75;14.07;;;;;;;;;;4972593;28;20072;-40
2021/12/02 13:23:56;;;;;;;23.50;9.93;;;;;;;;;;4972759;28;20043;-40
2021/12/02 13:26:23;;;;;;;30.92;12.07;;;;;;;;;;4972538;28;20042;-39
2021/12/02 13:28:51;;;;;;;34.88;13.77;;;;;;;;;;4972633;28;20110;-40
2021/12/02 13:31:18;;;;;;;26.08;11.73;;;;;;;;;;4972632;28;20035;-40
2021/12/02 13:33:50;;;;;;;15.95;7.85;;;;;;;;;;4956472;28;20019;-41
2021/12/02 13:36:16;;;;;;;14.82;7.88;;;;;;;;;;4983770;28;20042;-40
2021/12/02 13:38:44;;;;;;;20.50;9.02;;;;;;;;;;5033256;28;20470;-40
2021/12/02 13:41:15;;;;;;;18.55;7.75;;;;;;;;;;5033056;28;20052;-42
2021/12/02 13:43:55;;;;;;;12.68;5.28;;;;;;;;;;5033116;28;20554;-42
2021/12/02 13:46:32;;;;;;;13.10;6.38;;;;;;;;;;5033611;28;20032;-40
2021/12/02 13:49:03;;;;;;;15.50;7.03;;;;;;;;;;5033193;28;20096;-40
2021/12/02 13:54:17;;;;;;;11.68;6.22;;;;;;;;;;5033041;28;19951;-40
2021/12/02 13:56:43;;;;;;;16.38;6.90;;;;;;;;;;5032931;28;20025;-40
2021/12/02 13:59:18;;;;;;;20.63;9.10;;;;;;;;;;5033493;28;20037;-40
2021/12/02 14:01:50;;;;;;;17.88;7.53;;;;;;;;;;5032904;28;20048;-39
2021/12/02 14:04:17;;;;;;;20.17;8.15;;;;;;;;;;5033236;28;20025;-40
2021/12/02 14:06:43;;;;;;;15.50;7.35;;;;;;;;;;5036936;28;20072;-40
2021/12/02 14:09:19;;;;;;;16.50;7.28;;;;;;;;;;5037040;28;20032;-40
2021/12/02 14:11:45;;;;;;;16.38;6.78;;;;;;;;;;5036887;28;20022;-41
2021/12/02 14:14:18;;;;;;;14.70;6.25;;;;;;;;;;5036661;28;20076;-40
2021/12/02 14:16:45;;;;;;;12.93;6.78;;;;;;;;;;5036537;28;20088;-40
2021/12/02 14:19:12;;;;;;;13.75;6.28;;;;;;;;;;5036497;28;20097;-41
2021/12/02 14:21:38;;;;;;;13.25;6.05;;;;;;;;;;5036330;28;20385;-41
2021/12/02 14:24:07;;;;;;;16.92;6.70;;;;;;;;;;5035089;28;20064;-41
2021/12/02 14:26:33;;;;;;;14.52;6.30;;;;;;;;;;5035511;28;20017;-43
2021/12/02 14:28:59;;;;;;;13.82;7.20;;;;;;;;;;5036372;28;20025;-40
2021/12/02 14:31:26;;;;;;;15.05;6.47;;;;;;;;;;5036238;28;20021;-41
2021/12/02 14:33:53;;;;;;;16.70;7.93;;;;;;;;;;5035025;28;20029;-41
2021/12/02 14:36:20;;;;;;;27.92;13.70;;;;;;;;;;5036266;28;20060;-41
2021/12/02 14:38:57;;;;;;;24.40;12.18;;;;;;;;;;5036285;28;20026;-40
2021/12/02 14:41:29;;;;;;;24.50;11.15;;;;;;;;;;5036441;28;20029;-40
2021/12/02 14:43:57;;;;;;;37.88;16.00;;;;;;;;;;5036215;28;20041;-42
2021/12/02 14:46:25;;;;;;;22.40;10.27;;;;;;;;;;5035912;28;20026;-39
2021/12/02 14:49:00;;;;;;;30.83;13.45;;;;;;;;;;5036127;28;20447;-40
2021/12/02 14:51:26;;;;;;;17.83;9.25;;;;;;;;;;5035908;28;20378;-42
2021/12/02 14:53:54;;;;;;;18.02;8.80;;;;;;;;;;5036002;28;20029;-42
2021/12/02 14:56:30;;;;;;;19.60;10.30;;;;;;;;;;5034798;28;20477;-40
2021/12/02 14:59:17;;;;;;;25.65;13.63;;;;;;;;;;5035745;28;20026;-39
2021/12/02 15:02:01;;;;;;;26.58;15.15;;;;;;;;;;5035838;28;20020;-40